sensor_id;sensor_type;location;lat;lon;timestamp;temperature;humidity
11536;DHT22;5824;49.336;8.652;2023-01-31T00:00:43;4.50;1.00
11536;DHT22;5824;49.336;8.652;2023-01-31T00:03:09;4.40;2.70
11536;DHT22;5824;49.336;8.652;2023-01-31T00:05:34;4.30;4.90
11536;DHT22;5824;49.336;8.652;2023-01-31T00:08:00;4.40;4.20
11536;DHT22;5824;49.336;8.652;2023-01-31T00:10:26;4.30;5.30
11536;DHT22;5824;49.336;8.652;2023-01-31T00:12:51;4.30;5.90
11536;DHT22;5824;49.336;8.652;2023-01-31T00:15:17;4.30;5.80
11536;DHT22;5824;49.336;8.652;2023-01-31T00:17:43;4.30;6.00
11536;DHT22;5824;49.336;8.652;2023-01-31T00:20:10;4.30;5.20
11536;DHT22;5824;49.336;8.652;2023-01-31T00:22:35;4.30;5.70
11536;DHT22;5824;49.336;8.652;2023-01-31T00:25:01;4.30;6.20
11536;DHT22;5824;49.336;8.652;2023-01-31T00:27:27;4.70;5.50
11536;DHT22;5824;49.336;8.652;2023-01-31T00:29:52;4.40;4.90
11536;DHT22;5824;49.336;8.652;2023-01-31T00:32:18;4.30;5.60
11536;DHT22;5824;49.336;8.652;2023-01-31T00:34:43;4.40;4.90
11536;DHT22;5824;49.336;8.652;2023-01-31T00:37:09;4.40;4.80
11536;DHT22;5824;49.336;8.652;2023-01-31T00:39:34;4.40;6.50
11536;DHT22;5824;49.336;8.652;2023-01-31T00:42:00;4.40;4.60
11536;DHT22;5824;49.336;8.652;2023-01-31T00:44:25;4.40;4.00
11536;DHT22;5824;49.336;8.652;2023-01-31T00:46:51;4.40;5.10
11536;DHT22;5824;49.336;8.652;2023-01-31T00:49:16;4.40;4.60
11536;DHT22;5824;49.336;8.652;2023-01-31T00:51:42;4.40;4.50
11536;DHT22;5824;49.336;8.652;2023-01-31T00:54:09;4.40;4.10
11536;DHT22;5824;49.336;8.652;2023-01-31T00:56:34;4.40;3.50
11536;DHT22;5824;49.336;8.652;2023-01-31T00:59:02;4.40;4.30
11536;DHT22;5824;49.336;8.652;2023-01-31T01:01:33;4.40;3.50
11536;DHT22;5824;49.336;8.652;2023-01-31T01:03:59;4.50;3.50
11536;DHT22;5824;49.336;8.652;2023-01-31T01:06:26;4.50;3.30
11536;DHT22;5824;49.336;8.652;2023-01-31T01:08:52;4.70;3.90
11536;DHT22;5824;49.336;8.652;2023-01-31T01:11:37;4.50;2.90
11536;DHT22;5824;49.336;8.652;2023-01-31T01:14:03;4.50;2.80
11536;DHT22;5824;49.336;8.652;2023-01-31T01:16:34;4.50;3.30
11536;DHT22;5824;49.336;8.652;2023-01-31T01:19:08;4.40;2.70
11536;DHT22;5824;49.336;8.652;2023-01-31T01:21:35;4.40;2.70
11536;DHT22;5824;49.336;8.652;2023-01-31T01:24:05;4.70;3.40
11536;DHT22;5824;49.336;8.652;2023-01-31T01:26:32;4.40;3.70
11536;DHT22;5824;49.336;8.652;2023-01-31T01:28:59;4.50;3.90
11536;DHT22;5824;49.336;8.652;2023-01-31T01:31:26;4.50;4.70
11536;DHT22;5824;49.336;8.652;2023-01-31T01:33:59;4.40;4.30
11536;DHT22;5824;49.336;8.652;2023-01-31T01:36:26;4.40;5.20
11536;DHT22;5824;49.336;8.652;2023-01-31T01:38:52;4.40;4.00
11536;DHT22;5824;49.336;8.652;2023-01-31T01:41:17;4.40;3.70
11536;DHT22;5824;49.336;8.652;2023-01-31T01:43:52;4.40;2.80
11536;DHT22;5824;49.336;8.652;2023-01-31T01:46:28;4.60;4.60
11536;DHT22;5824;49.336;8.652;2023-01-31T01:51:42;4.40;3.20
11536;DHT22;5824;49.336;8.652;2023-01-31T01:54:12;4.20;2.20
11536;DHT22;5824;49.336;8.652;2023-01-31T01:56:42;4.50;1.70
11536;DHT22;5824;49.336;8.652;2023-01-31T01:59:15;4.60;2.50
11536;DHT22;5824;49.336;8.652;2023-01-31T02:01:41;4.40;1.70
11536;DHT22;5824;49.336;8.652;2023-01-31T02:04:16;4.40;2.60
11536;DHT22;5824;49.336;8.652;2023-01-31T02:06:44;4.40;3.90
11536;DHT22;5824;49.336;8.652;2023-01-31T02:11:58;4.40;3.10
11536;DHT22;5824;49.336;8.652;2023-01-31T02:14:24;4.40;2.00
11536;DHT22;5824;49.336;8.652;2023-01-31T02:16:50;4.40;3.30
11536;DHT22;5824;49.336;8.652;2023-01-31T02:19:33;4.50;2.20
11536;DHT22;5824;49.336;8.652;2023-01-31T02:30:22;4.50;2.70
11536;DHT22;5824;49.336;8.652;2023-01-31T02:33:02;4.50;2.30
11536;DHT22;5824;49.336;8.652;2023-01-31T02:47:54;4.40;2.20
11536;DHT22;5824;49.336;8.652;2023-01-31T02:50:28;4.30;1.40
11536;DHT22;5824;49.336;8.652;2023-01-31T02:55:48;4.30;2.10
11536;DHT22;5824;49.336;8.652;2023-01-31T02:58:36;4.30;2.30
11536;DHT22;5824;49.336;8.652;2023-01-31T03:01:03;4.30;1.10
11536;DHT22;5824;49.336;8.652;2023-01-31T03:03:34;4.30;1.00
11536;DHT22;5824;49.336;8.652;2023-01-31T03:08:36;4.60;1.20
11536;DHT22;5824;49.336;8.652;2023-01-31T03:11:04;4.30;3.20
11536;DHT22;5824;49.336;8.652;2023-01-31T03:13:46;4.30;3.10
11536;DHT22;5824;49.336;8.652;2023-01-31T03:19:15;4.10;3.40
11536;DHT22;5824;49.336;8.652;2023-01-31T03:22:04;4.00;2.20
11536;DHT22;5824;49.336;8.652;2023-01-31T03:24:32;4.00;4.00
11536;DHT22;5824;49.336;8.652;2023-01-31T03:26:59;4.00;2.80
11536;DHT22;5824;49.336;8.652;2023-01-31T03:29:27;4.00;3.80
11536;DHT22;5824;49.336;8.652;2023-01-31T03:31:58;4.00;2.90
11536;DHT22;5824;49.336;8.652;2023-01-31T03:34:25;3.90;3.60
11536;DHT22;5824;49.336;8.652;2023-01-31T03:37:20;3.80;3.50
11536;DHT22;5824;49.336;8.652;2023-01-31T03:40:16;3.80;4.50
11536;DHT22;5824;49.336;8.652;2023-01-31T03:43:11;3.70;4.60
11536;DHT22;5824;49.336;8.652;2023-01-31T03:45:50;3.60;5.40
11536;DHT22;5824;49.336;8.652;2023-01-31T03:48:17;3.60;6.30
11536;DHT22;5824;49.336;8.652;2023-01-31T03:50:53;3.50;7.40
11536;DHT22;5824;49.336;8.652;2023-01-31T03:56:00;3.40;7.90
11536;DHT22;5824;49.336;8.652;2023-01-31T03:58:30;3.40;9.50
11536;DHT22;5824;49.336;8.652;2023-01-31T04:00:59;3.80;10.00
11536;DHT22;5824;49.336;8.652;2023-01-31T04:03:36;3.70;9.70
11536;DHT22;5824;49.336;8.652;2023-01-31T04:06:04;3.70;10.70
11536;DHT22;5824;49.336;8.652;2023-01-31T04:08:31;3.20;11.40
11536;DHT22;5824;49.336;8.652;2023-01-31T04:10:58;3.10;11.60
11536;DHT22;5824;49.336;8.652;2023-01-31T04:13:24;3.20;13.20
11536;DHT22;5824;49.336;8.652;2023-01-31T04:15:50;3.00;13.50
11536;DHT22;5824;49.336;8.652;2023-01-31T04:18:15;3.00;15.20
11536;DHT22;5824;49.336;8.652;2023-01-31T04:20:41;3.40;14.90
11536;DHT22;5824;49.336;8.652;2023-01-31T04:23:06;2.90;14.90
11536;DHT22;5824;49.336;8.652;2023-01-31T04:25:32;3.00;16.00
11536;DHT22;5824;49.336;8.652;2023-01-31T04:27:57;2.80;14.60
11536;DHT22;5824;49.336;8.652;2023-01-31T04:30:23;3.20;15.80
11536;DHT22;5824;49.336;8.652;2023-01-31T04:32:48;2.70;14.80
11536;DHT22;5824;49.336;8.652;2023-01-31T04:35:14;3.00;13.80
11536;DHT22;5824;49.336;8.652;2023-01-31T04:37:39;2.50;14.30
11536;DHT22;5824;49.336;8.652;2023-01-31T04:40:05;2.40;14.40
11536;DHT22;5824;49.336;8.652;2023-01-31T04:42:31;2.40;15.90
11536;DHT22;5824;49.336;8.652;2023-01-31T04:44:57;2.50;18.00
11536;DHT22;5824;49.336;8.652;2023-01-31T04:47:22;2.60;18.70
11536;DHT22;5824;49.336;8.652;2023-01-31T04:49:48;2.60;17.70
11536;DHT22;5824;49.336;8.652;2023-01-31T04:52:13;2.20;20.40
11536;DHT22;5824;49.336;8.652;2023-01-31T04:54:39;2.10;18.70
11536;DHT22;5824;49.336;8.652;2023-01-31T04:57:06;2.10;20.00
11536;DHT22;5824;49.336;8.652;2023-01-31T04:59:31;2.40;19.60
11536;DHT22;5824;49.336;8.652;2023-01-31T05:01:57;2.00;20.70
11536;DHT22;5824;49.336;8.652;2023-01-31T05:04:22;1.90;20.50
11536;DHT22;5824;49.336;8.652;2023-01-31T05:06:49;1.80;20.20
11536;DHT22;5824;49.336;8.652;2023-01-31T05:09:15;2.20;20.40
11536;DHT22;5824;49.336;8.652;2023-01-31T05:11:42;1.70;23.30
11536;DHT22;5824;49.336;8.652;2023-01-31T05:14:08;1.70;23.60
11536;DHT22;5824;49.336;8.652;2023-01-31T05:16:33;1.60;26.20
11536;DHT22;5824;49.336;8.652;2023-01-31T05:18:59;1.70;23.20
11536;DHT22;5824;49.336;8.652;2023-01-31T05:21:25;1.90;21.30
11536;DHT22;5824;49.336;8.652;2023-01-31T05:23:51;1.80;24.40
11536;DHT22;5824;49.336;8.652;2023-01-31T05:26:16;2.00;28.30
11536;DHT22;5824;49.336;8.652;2023-01-31T05:28:42;1.50;32.00
11536;DHT22;5824;49.336;8.652;2023-01-31T05:31:08;1.50;31.90
11536;DHT22;5824;49.336;8.652;2023-01-31T05:33:33;1.40;31.90
11536;DHT22;5824;49.336;8.652;2023-01-31T05:35:59;1.50;32.00
11536;DHT22;5824;49.336;8.652;2023-01-31T05:38:25;1.40;25.20
11536;DHT22;5824;49.336;8.652;2023-01-31T05:40:51;1.60;27.20
11536;DHT22;5824;49.336;8.652;2023-01-31T05:43:16;1.60;32.00
11536;DHT22;5824;49.336;8.652;2023-01-31T05:45:42;1.30;31.90
11536;DHT22;5824;49.336;8.652;2023-01-31T05:48:08;0.90;31.40
11536;DHT22;5824;49.336;8.652;2023-01-31T05:50:34;1.70;32.10
11536;DHT22;5824;49.336;8.652;2023-01-31T05:53:00;1.70;29.60
11536;DHT22;5824;49.336;8.652;2023-01-31T05:55:28;1.20;30.50
11536;DHT22;5824;49.336;8.652;2023-01-31T05:57:54;1.20;26.90
11536;DHT22;5824;49.336;8.652;2023-01-31T06:00:19;1.20;26.80
11536;DHT22;5824;49.336;8.652;2023-01-31T06:02:45;1.10;27.90
11536;DHT22;5824;49.336;8.652;2023-01-31T06:05:12;1.10;31.70
11536;DHT22;5824;49.336;8.652;2023-01-31T06:07:38;1.10;31.80
11536;DHT22;5824;49.336;8.652;2023-01-31T06:10:05;1.10;31.90
11536;DHT22;5824;49.336;8.652;2023-01-31T06:12:31;1.10;31.90
11536;DHT22;5824;49.336;8.652;2023-01-31T06:14:56;1.20;31.90
11536;DHT22;5824;49.336;8.652;2023-01-31T06:17:22;1.50;32.20
11536;DHT22;5824;49.336;8.652;2023-01-31T06:19:50;1.10;31.90
11536;DHT22;5824;49.336;8.652;2023-01-31T06:22:17;1.10;31.90
11536;DHT22;5824;49.336;8.652;2023-01-31T06:24:43;1.70;32.30
11536;DHT22;5824;49.336;8.652;2023-01-31T06:27:08;1.30;32.00
11536;DHT22;5824;49.336;8.652;2023-01-31T06:29:34;1.50;32.30
11536;DHT22;5824;49.336;8.652;2023-01-31T06:31:59;1.60;32.40
11536;DHT22;5824;49.336;8.652;2023-01-31T06:34:25;1.80;32.50
11536;DHT22;5824;49.336;8.652;2023-01-31T06:36:50;1.90;32.50
11536;DHT22;5824;49.336;8.652;2023-01-31T06:39:16;2.30;32.90
11536;DHT22;5824;49.336;8.652;2023-01-31T06:41:41;2.10;32.70
11536;DHT22;5824;49.336;8.652;2023-01-31T06:44:06;2.20;32.70
11536;DHT22;5824;49.336;8.652;2023-01-31T06:46:32;2.70;33.00
11536;DHT22;5824;49.336;8.652;2023-01-31T06:48:58;2.40;32.90
11536;DHT22;5824;49.336;8.652;2023-01-31T06:51:23;2.70;33.00
11536;DHT22;5824;49.336;8.652;2023-01-31T06:53:49;2.40;32.70
11536;DHT22;5824;49.336;8.652;2023-01-31T06:56:16;2.90;33.00
11536;DHT22;5824;49.336;8.652;2023-01-31T06:58:41;2.50;32.80
11536;DHT22;5824;49.336;8.652;2023-01-31T07:01:09;2.60;32.90
11536;DHT22;5824;49.336;8.652;2023-01-31T07:03:35;2.70;32.40
11536;DHT22;5824;49.336;8.652;2023-01-31T07:06:01;3.00;29.40
11536;DHT22;5824;49.336;8.652;2023-01-31T07:08:27;2.70;28.00
11536;DHT22;5824;49.336;8.652;2023-01-31T07:10:52;2.90;26.00
11536;DHT22;5824;49.336;8.652;2023-01-31T07:13:18;3.30;25.00
11536;DHT22;5824;49.336;8.652;2023-01-31T07:15:44;3.20;23.10
11536;DHT22;5824;49.336;8.652;2023-01-31T07:18:10;2.90;23.40
11536;DHT22;5824;49.336;8.652;2023-01-31T07:20:38;3.30;22.50
11536;DHT22;5824;49.336;8.652;2023-01-31T07:23:03;3.10;24.70
11536;DHT22;5824;49.336;8.652;2023-01-31T07:25:29;2.90;23.80
11536;DHT22;5824;49.336;8.652;2023-01-31T07:27:56;2.80;23.70
11536;DHT22;5824;49.336;8.652;2023-01-31T07:30:22;3.10;25.90
11536;DHT22;5824;49.336;8.652;2023-01-31T07:32:47;2.90;29.70
11536;DHT22;5824;49.336;8.652;2023-01-31T07:35:13;2.60;32.90
11536;DHT22;5824;49.336;8.652;2023-01-31T07:37:38;2.60;32.90
11536;DHT22;5824;49.336;8.652;2023-01-31T07:40:08;3.10;33.30
11536;DHT22;5824;49.336;8.652;2023-01-31T07:42:34;2.60;33.00
11536;DHT22;5824;49.336;8.652;2023-01-31T07:45:00;3.10;29.00
11536;DHT22;5824;49.336;8.652;2023-01-31T07:47:25;2.70;30.10
11536;DHT22;5824;49.336;8.652;2023-01-31T07:49:51;2.80;28.00
11536;DHT22;5824;49.336;8.652;2023-01-31T07:52:16;3.20;25.40
11536;DHT22;5824;49.336;8.652;2023-01-31T07:54:42;3.00;21.00
11536;DHT22;5824;49.336;8.652;2023-01-31T07:57:07;3.00;18.40
11536;DHT22;5824;49.336;8.652;2023-01-31T07:59:33;3.10;19.30
11536;DHT22;5824;49.336;8.652;2023-01-31T08:01:58;3.20;14.90
11536;DHT22;5824;49.336;8.652;2023-01-31T08:04:42;3.30;12.30
11536;DHT22;5824;49.336;8.652;2023-01-31T08:07:08;3.30;12.20
11536;DHT22;5824;49.336;8.652;2023-01-31T08:09:34;3.70;9.70
11536;DHT22;5824;49.336;8.652;2023-01-31T08:12:00;3.80;10.40
11536;DHT22;5824;49.336;8.652;2023-01-31T08:14:25;3.90;9.60
11536;DHT22;5824;49.336;8.652;2023-01-31T08:16:55;3.60;9.80
11536;DHT22;5824;49.336;8.652;2023-01-31T08:19:21;3.40;9.50
11536;DHT22;5824;49.336;8.652;2023-01-31T08:21:47;3.40;9.10
11536;DHT22;5824;49.336;8.652;2023-01-31T08:24:12;3.70;9.30
11536;DHT22;5824;49.336;8.652;2023-01-31T08:26:38;3.70;13.40
11536;DHT22;5824;49.336;8.652;2023-01-31T08:29:04;3.30;11.70
11536;DHT22;5824;49.336;8.652;2023-01-31T08:31:29;3.70;11.50
11536;DHT22;5824;49.336;8.652;2023-01-31T08:33:55;3.40;12.10
11536;DHT22;5824;49.336;8.652;2023-01-31T08:36:26;3.70;12.20
11536;DHT22;5824;49.336;8.652;2023-01-31T08:38:53;3.70;11.20
11536;DHT22;5824;49.336;8.652;2023-01-31T08:41:20;4.10;8.30
11536;DHT22;5824;49.336;8.652;2023-01-31T08:43:46;4.20;6.50
11536;DHT22;5824;49.336;8.652;2023-01-31T08:46:15;4.00;6.90
11536;DHT22;5824;49.336;8.652;2023-01-31T08:48:40;4.20;3.00
11536;DHT22;5824;49.336;8.652;2023-01-31T08:51:08;4.70;1.00
11536;DHT22;5824;49.336;8.652;2023-01-31T08:53:37;4.50;1.00
11536;DHT22;5824;49.336;8.652;2023-01-31T08:56:04;4.80;1.00
11536;DHT22;5824;49.336;8.652;2023-01-31T08:58:31;5.10;1.00
11536;DHT22;5824;49.336;8.652;2023-01-31T09:01:01;5.20;1.00
11536;DHT22;5824;49.336;8.652;2023-01-31T09:03:27;5.10;1.00
11536;DHT22;5824;49.336;8.652;2023-01-31T09:05:53;5.10;1.00
11536;DHT22;5824;49.336;8.652;2023-01-31T09:08:18;5.10;1.00
11536;DHT22;5824;49.336;8.652;2023-01-31T09:10:50;5.10;1.00
11536;DHT22;5824;49.336;8.652;2023-01-31T09:13:16;5.30;1.00
11536;DHT22;5824;49.336;8.652;2023-01-31T09:15:41;5.40;1.00
11536;DHT22;5824;49.336;8.652;2023-01-31T09:18:07;5.60;1.00
11536;DHT22;5824;49.336;8.652;2023-01-31T09:20:32;5.50;1.00
11536;DHT22;5824;49.336;8.652;2023-01-31T09:22:58;5.60;1.00
11536;DHT22;5824;49.336;8.652;2023-01-31T09:25:23;5.60;1.00
11536;DHT22;5824;49.336;8.652;2023-01-31T09:27:51;5.80;1.00
11536;DHT22;5824;49.336;8.652;2023-01-31T09:30:17;6.10;1.00
11536;DHT22;5824;49.336;8.652;2023-01-31T09:32:43;6.30;1.00
11536;DHT22;5824;49.336;8.652;2023-01-31T09:35:11;6.30;1.00
11536;DHT22;5824;49.336;8.652;2023-01-31T09:37:36;6.00;1.00
11536;DHT22;5824;49.336;8.652;2023-01-31T09:40:03;6.00;1.00
11536;DHT22;5824;49.336;8.652;2023-01-31T09:42:40;6.80;1.00
11536;DHT22;5824;49.336;8.652;2023-01-31T09:45:12;7.40;1.00
11536;DHT22;5824;49.336;8.652;2023-01-31T09:47:43;7.40;1.00
11536;DHT22;5824;49.336;8.652;2023-01-31T09:52:57;8.10;1.00
11536;DHT22;5824;49.336;8.652;2023-01-31T09:55:30;8.60;1.00
11536;DHT22;5824;49.336;8.652;2023-01-31T10:01:33;10.40;1.00
11536;DHT22;5824;49.336;8.652;2023-01-31T10:07:08;9.90;1.00
11536;DHT22;5824;49.336;8.652;2023-01-31T10:09:44;9.10;1.00
11536;DHT22;5824;49.336;8.652;2023-01-31T10:12:20;8.40;1.00
11536;DHT22;5824;49.336;8.652;2023-01-31T10:15:01;8.20;1.00
11536;DHT22;5824;49.336;8.652;2023-01-31T10:17:39;8.10;1.00
11536;DHT22;5824;49.336;8.652;2023-01-31T10:20:31;7.90;1.00
11536;DHT22;5824;49.336;8.652;2023-01-31T10:25:47;7.80;1.00
11536;DHT22;5824;49.336;8.652;2023-01-31T10:28:37;7.70;1.00
11536;DHT22;5824;49.336;8.652;2023-01-31T10:34:04;7.30;1.00
11536;DHT22;5824;49.336;8.652;2023-01-31T10:36:35;7.10;1.00
11536;DHT22;5824;49.336;8.652;2023-01-31T10:44:50;7.30;1.00
11536;DHT22;5824;49.336;8.652;2023-01-31T10:47:18;7.50;1.00
11536;DHT22;5824;49.336;8.652;2023-01-31T10:49:45;7.40;1.00
11536;DHT22;5824;49.336;8.652;2023-01-31T10:57:46;7.40;1.00
11536;DHT22;5824;49.336;8.652;2023-01-31T11:00:18;7.50;1.00
11536;DHT22;5824;49.336;8.652;2023-01-31T11:02:44;7.80;1.00
11536;DHT22;5824;49.336;8.652;2023-01-31T11:05:15;7.70;1.00
11536;DHT22;5824;49.336;8.652;2023-01-31T11:07:43;7.50;1.00
11536;DHT22;5824;49.336;8.652;2023-01-31T11:10:27;7.20;1.00
11536;DHT22;5824;49.336;8.652;2023-01-31T11:13:01;7.00;1.00
11536;DHT22;5824;49.336;8.652;2023-01-31T11:15:35;6.90;1.00
11536;DHT22;5824;49.336;8.652;2023-01-31T11:18:02;6.80;1.00
11536;DHT22;5824;49.336;8.652;2023-01-31T11:20:34;6.70;1.00
11536;DHT22;5824;49.336;8.652;2023-01-31T11:23:01;6.60;1.00
11536;DHT22;5824;49.336;8.652;2023-01-31T11:25:30;6.50;1.00
11536;DHT22;5824;49.336;8.652;2023-01-31T11:28:00;6.40;1.00
11536;DHT22;5824;49.336;8.652;2023-01-31T11:30:34;6.50;1.00
11536;DHT22;5824;49.336;8.652;2023-01-31T11:33:00;6.50;1.00
11536;DHT22;5824;49.336;8.652;2023-01-31T11:35:28;6.60;1.00
11536;DHT22;5824;49.336;8.652;2023-01-31T11:37:55;6.50;1.00
11536;DHT22;5824;49.336;8.652;2023-01-31T11:40:35;6.50;1.00
11536;DHT22;5824;49.336;8.652;2023-01-31T11:43:03;6.50;1.00
11536;DHT22;5824;49.336;8.652;2023-01-31T11:45:42;6.70;1.00
11536;DHT22;5824;49.336;8.652;2023-01-31T11:48:16;6.70;1.00
11536;DHT22;5824;49.336;8.652;2023-01-31T11:50:44;6.50;1.00
11536;DHT22;5824;49.336;8.652;2023-01-31T11:53:23;6.50;1.00
11536;DHT22;5824;49.336;8.652;2023-01-31T11:55:52;6.50;1.00
11536;DHT22;5824;49.336;8.652;2023-01-31T11:58:31;6.40;1.00
11536;DHT22;5824;49.336;8.652;2023-01-31T12:01:01;6.30;1.00
11536;DHT22;5824;49.336;8.652;2023-01-31T12:03:31;6.20;1.00
11536;DHT22;5824;49.336;8.652;2023-01-31T12:06:08;6.00;1.00
11536;DHT22;5824;49.336;8.652;2023-01-31T12:08:35;6.10;1.00
11536;DHT22;5824;49.336;8.652;2023-01-31T12:13:46;6.00;1.00
11536;DHT22;5824;49.336;8.652;2023-01-31T12:16:12;6.10;1.00
11536;DHT22;5824;49.336;8.652;2023-01-31T12:26:41;6.00;1.00
11536;DHT22;5824;49.336;8.652;2023-01-31T12:32:05;6.00;1.00
11536;DHT22;5824;49.336;8.652;2023-01-31T12:35:01;6.00;1.00
11536;DHT22;5824;49.336;8.652;2023-01-31T12:40:39;6.10;1.00
11536;DHT22;5824;49.336;8.652;2023-01-31T12:43:20;6.00;1.00
11536;DHT22;5824;49.336;8.652;2023-01-31T12:48:40;5.90;1.00
11536;DHT22;5824;49.336;8.652;2023-01-31T12:51:26;6.00;1.00
11536;DHT22;5824;49.336;8.652;2023-01-31T12:54:28;5.80;1.00
11536;DHT22;5824;49.336;8.652;2023-01-31T12:59:45;5.60;1.00
11536;DHT22;5824;49.336;8.652;2023-01-31T13:07:46;5.70;1.00
11536;DHT22;5824;49.336;8.652;2023-01-31T13:10:36;5.70;1.00
11536;DHT22;5824;49.336;8.652;2023-01-31T13:13:05;5.70;1.00
11536;DHT22;5824;49.336;8.652;2023-01-31T13:15:46;5.80;1.00
11536;DHT22;5824;49.336;8.652;2023-01-31T13:18:13;5.80;1.00
11536;DHT22;5824;49.336;8.652;2023-01-31T13:20:46;5.70;1.00
11536;DHT22;5824;49.336;8.652;2023-01-31T13:23:28;5.70;1.00
11536;DHT22;5824;49.336;8.652;2023-01-31T13:26:10;5.70;1.00
11536;DHT22;5824;49.336;8.652;2023-01-31T13:31:47;5.50;1.00
11536;DHT22;5824;49.336;8.652;2023-01-31T13:34:25;5.30;1.00
11536;DHT22;5824;49.336;8.652;2023-01-31T13:39:41;5.20;1.00
11536;DHT22;5824;49.336;8.652;2023-01-31T13:42:14;5.20;1.00
11536;DHT22;5824;49.336;8.652;2023-01-31T13:44:41;5.30;1.00
11536;DHT22;5824;49.336;8.652;2023-01-31T13:47:21;5.30;1.00
11536;DHT22;5824;49.336;8.652;2023-01-31T13:49:57;5.30;1.00
11536;DHT22;5824;49.336;8.652;2023-01-31T13:52:34;5.30;1.00
11536;DHT22;5824;49.336;8.652;2023-01-31T13:55:13;5.80;1.00
11536;DHT22;5824;49.336;8.652;2023-01-31T13:57:51;5.50;1.00
11536;DHT22;5824;49.336;8.652;2023-01-31T14:03:18;5.60;1.00
11536;DHT22;5824;49.336;8.652;2023-01-31T14:05:57;5.50;1.00
11536;DHT22;5824;49.336;8.652;2023-01-31T14:13:47;5.50;1.00
11536;DHT22;5824;49.336;8.652;2023-01-31T14:16:53;5.50;1.00
11536;DHT22;5824;49.336;8.652;2023-01-31T14:25:04;5.70;1.00
11536;DHT22;5824;49.336;8.652;2023-01-31T14:30:10;5.60;1.00
11536;DHT22;5824;49.336;8.652;2023-01-31T14:55:03;5.80;1.00
11536;DHT22;5824;49.336;8.652;2023-01-31T14:57:40;5.80;1.00
11536;DHT22;5824;49.336;8.652;2023-01-31T15:02:49;5.80;1.00
11536;DHT22;5824;49.336;8.652;2023-01-31T15:05:18;5.80;1.00
11536;DHT22;5824;49.336;8.652;2023-01-31T15:13:51;5.80;1.00
11536;DHT22;5824;49.336;8.652;2023-01-31T15:16:24;5.90;1.00
11536;DHT22;5824;49.336;8.652;2023-01-31T15:18:57;5.90;1.00
11536;DHT22;5824;49.336;8.652;2023-01-31T15:21:30;6.00;1.00
11536;DHT22;5824;49.336;8.652;2023-01-31T15:23:57;6.00;1.00
11536;DHT22;5824;49.336;8.652;2023-01-31T15:26:27;5.90;1.00
11536;DHT22;5824;49.336;8.652;2023-01-31T15:28:53;6.00;1.00
11536;DHT22;5824;49.336;8.652;2023-01-31T15:31:30;6.00;1.00
11536;DHT22;5824;49.336;8.652;2023-01-31T15:34:00;6.00;1.00
11536;DHT22;5824;49.336;8.652;2023-01-31T15:36:42;6.00;1.00
11536;DHT22;5824;49.336;8.652;2023-01-31T15:39:20;5.90;1.00
11536;DHT22;5824;49.336;8.652;2023-01-31T15:41:46;6.00;1.00
11536;DHT22;5824;49.336;8.652;2023-01-31T15:46:37;6.00;1.00
11536;DHT22;5824;49.336;8.652;2023-01-31T15:49:21;6.00;1.00
11536;DHT22;5824;49.336;8.652;2023-01-31T15:52:04;6.00;1.00
11536;DHT22;5824;49.336;8.652;2023-01-31T15:54:34;6.10;1.00
11536;DHT22;5824;49.336;8.652;2023-01-31T15:57:01;6.10;1.00
11536;DHT22;5824;49.336;8.652;2023-01-31T15:59:29;6.10;1.00
11536;DHT22;5824;49.336;8.652;2023-01-31T16:02:00;6.10;1.00
11536;DHT22;5824;49.336;8.652;2023-01-31T16:04:27;6.10;1.00
11536;DHT22;5824;49.336;8.652;2023-01-31T16:06:53;6.10;1.00
11536;DHT22;5824;49.336;8.652;2023-01-31T16:09:26;6.20;1.00
11536;DHT22;5824;49.336;8.652;2023-01-31T16:11:54;6.20;1.00
11536;DHT22;5824;49.336;8.652;2023-01-31T16:14:21;6.20;1.00
11536;DHT22;5824;49.336;8.652;2023-01-31T16:16:50;6.20;1.00
11536;DHT22;5824;49.336;8.652;2023-01-31T16:19:23;6.20;1.00
11536;DHT22;5824;49.336;8.652;2023-01-31T16:21:49;6.20;1.00
11536;DHT22;5824;49.336;8.652;2023-01-31T16:24:17;6.20;1.00
11536;DHT22;5824;49.336;8.652;2023-01-31T16:27:08;6.20;1.00
11536;DHT22;5824;49.336;8.652;2023-01-31T16:29:44;6.20;1.00
11536;DHT22;5824;49.336;8.652;2023-01-31T16:32:29;6.30;1.00
11536;DHT22;5824;49.336;8.652;2023-01-31T16:35:01;6.30;1.00
11536;DHT22;5824;49.336;8.652;2023-01-31T16:37:47;6.30;1.00
11536;DHT22;5824;49.336;8.652;2023-01-31T16:40:29;6.30;1.00
11536;DHT22;5824;49.336;8.652;2023-01-31T16:43:15;6.30;1.00
11536;DHT22;5824;49.336;8.652;2023-01-31T16:45:51;6.30;1.00
11536;DHT22;5824;49.336;8.652;2023-01-31T16:50:55;6.30;1.00
11536;DHT22;5824;49.336;8.652;2023-01-31T16:53:33;6.30;1.00
11536;DHT22;5824;49.336;8.652;2023-01-31T17:01:14;6.30;1.00
11536;DHT22;5824;49.336;8.652;2023-01-31T17:03:40;6.20;1.00
11536;DHT22;5824;49.336;8.652;2023-01-31T17:06:06;6.30;1.00
11536;DHT22;5824;49.336;8.652;2023-01-31T17:08:38;6.30;1.00
11536;DHT22;5824;49.336;8.652;2023-01-31T17:11:05;6.30;1.00
11536;DHT22;5824;49.336;8.652;2023-01-31T17:13:34;6.30;1.00
11536;DHT22;5824;49.336;8.652;2023-01-31T17:16:00;6.40;1.00
11536;DHT22;5824;49.336;8.652;2023-01-31T17:18:26;6.40;1.00
11536;DHT22;5824;49.336;8.652;2023-01-31T17:20:51;6.40;1.00
11536;DHT22;5824;49.336;8.652;2023-01-31T17:23:17;6.40;1.00
11536;DHT22;5824;49.336;8.652;2023-01-31T17:25:43;6.40;1.00
11536;DHT22;5824;49.336;8.652;2023-01-31T17:28:09;6.40;1.00
11536;DHT22;5824;49.336;8.652;2023-01-31T17:30:40;6.40;1.00
11536;DHT22;5824;49.336;8.652;2023-01-31T17:33:07;6.40;1.00
11536;DHT22;5824;49.336;8.652;2023-01-31T17:35:41;6.40;1.00
11536;DHT22;5824;49.336;8.652;2023-01-31T17:38:07;6.50;1.00
11536;DHT22;5824;49.336;8.652;2023-01-31T17:40:33;6.50;1.00
11536;DHT22;5824;49.336;8.652;2023-01-31T17:43:01;6.50;1.00
11536;DHT22;5824;49.336;8.652;2023-01-31T17:45:28;6.40;1.00
11536;DHT22;5824;49.336;8.652;2023-01-31T17:47:54;6.40;1.00
11536;DHT22;5824;49.336;8.652;2023-01-31T17:50:22;6.40;1.00
11536;DHT22;5824;49.336;8.652;2023-01-31T17:52:49;6.50;1.00
11536;DHT22;5824;49.336;8.652;2023-01-31T17:55:15;6.50;1.00
11536;DHT22;5824;49.336;8.652;2023-01-31T17:57:42;6.50;1.00
11536;DHT22;5824;49.336;8.652;2023-01-31T18:00:10;6.50;1.00
11536;DHT22;5824;49.336;8.652;2023-01-31T18:02:36;6.50;1.00
11536;DHT22;5824;49.336;8.652;2023-01-31T18:05:03;6.50;1.00
11536;DHT22;5824;49.336;8.652;2023-01-31T18:07:29;6.50;1.00
11536;DHT22;5824;49.336;8.652;2023-01-31T18:09:54;6.50;1.00
11536;DHT22;5824;49.336;8.652;2023-01-31T18:12:20;6.50;1.00
11536;DHT22;5824;49.336;8.652;2023-01-31T18:14:46;6.50;1.00
11536;DHT22;5824;49.336;8.652;2023-01-31T18:17:11;6.50;1.00
11536;DHT22;5824;49.336;8.652;2023-01-31T18:19:37;6.50;1.00
11536;DHT22;5824;49.336;8.652;2023-01-31T18:22:03;6.50;1.00
11536;DHT22;5824;49.336;8.652;2023-01-31T18:24:29;6.40;1.00
11536;DHT22;5824;49.336;8.652;2023-01-31T18:26:55;6.50;1.00
11536;DHT22;5824;49.336;8.652;2023-01-31T18:29:21;6.40;1.00
11536;DHT22;5824;49.336;8.652;2023-01-31T18:31:51;6.50;1.00
11536;DHT22;5824;49.336;8.652;2023-01-31T18:34:19;6.50;1.00
11536;DHT22;5824;49.336;8.652;2023-01-31T18:36:45;6.40;1.00
11536;DHT22;5824;49.336;8.652;2023-01-31T18:39:10;6.40;1.00
11536;DHT22;5824;49.336;8.652;2023-01-31T18:41:36;6.30;1.00
11536;DHT22;5824;49.336;8.652;2023-01-31T18:44:01;6.30;1.00
11536;DHT22;5824;49.336;8.652;2023-01-31T18:46:27;6.30;1.00
11536;DHT22;5824;49.336;8.652;2023-01-31T18:48:53;6.30;1.00
11536;DHT22;5824;49.336;8.652;2023-01-31T18:51:19;6.30;1.00
11536;DHT22;5824;49.336;8.652;2023-01-31T18:53:46;7.00;1.00
11536;DHT22;5824;49.336;8.652;2023-01-31T18:56:14;6.30;1.00
11536;DHT22;5824;49.336;8.652;2023-01-31T18:58:41;6.30;1.00
11536;DHT22;5824;49.336;8.652;2023-01-31T19:01:14;6.30;1.00
11536;DHT22;5824;49.336;8.652;2023-01-31T19:03:40;6.30;1.00